East Jordan, MI

8:08 PM EDT on April 19, 2015 (GMT -0400)
Charlevoix Municipal | | Change Station
CLOSE
Current Station
Airport
Location: Charlevoix,
Elevation: 669 ft
Nearby Weather Stations

Elev 669 ft 45.30 °N, 85.27 °W | Updated 13 minutes ago

Partly Cloudy
Partly Cloudy
52 °F
Feels Like 52 °F
N
18
Wind Variable Wind from ESE
Gusts 24 mph

Today
High -- | Low -- °F
--% Chance of Precip.
Yesterday
High -- | Low -- °F
Precip. -- in
6:49 AM 8:31 PM
New Moon, 2% visible
Pressure 29.69 in
Visibility 10.0 miles
Clouds Clear
Dew Point 32 °F
Humidity 47%
Rainfall 0.00 in
Snow Depth Not available.
UV 0 out of 12
Pollen 9.70 out of 12
Air Quality Not available.
Flu Activity Regional
METAR KCVX 192355Z AUTO 11016G21KT 10SM CLR 11/00 A2969 RMK AO2 T01100000 10183 20110

More Conditions Fewer Conditions

Pressure 29.69 in
Visibility 10.0 miles
Clouds Clear
Dew Point 32 °F
Humidity 47%
Rainfall 0.00 in
Snow Depth Not available.
UV 0 out of 12
Pollen 9.70 out of 12
Air Quality Not available.
Flu Activity Regional
METAR KCVX 192355Z AUTO 11016G21KT 10SM CLR 11/00 A2969 RMK AO2 T01100000 10183 20110

More Conditions Fewer Conditions

Nowcast | as of 8:00 PM EDT on April 19, 2015

At 9 PM...mostly cloudy. Chance of rain. Temperature 51. East winds 15 mph. At 11 PM...rain likely. Temperature 48. East winds 15 mph. At 1 am...rain likely. Temperature 48. East winds 14 mph. At 3 am...rain. Temperature 49. East winds 13 mph.

×

10-Day Weather Forecast

Almanac

Astronomy

Apr. 19, 2015 Rise Set
Actual Time
Civil Twilight
Nautical Twilight
Astronomical Twilight
Moon
Length of Visible Light
Length of Day
Tomorrow will be .
, % of the Moon is Illuminated

Today's Extremes

State Highs State Lows

Community

WunderPhotos

Upload Photos

1,815,046 photos uploaded!

WunderBlogs® & News

Nearby

Air Quality

  Air Quality AQ Index Pollutant
Not available.

Snow Depth

Station Depth Elevation

Earthquake Activity

City Distance Mag. Time & Date
Minimum magnitude displayed is 2.5.

Coastal Water Temperatures

Place Temperature

Stations

Nearby Weather Stations

Station Location Temp. Windchill Dew Point Humidity Wind Precip. Elev Updated Type